Time;durP1;ratioP1;P1;durP2;ratioP2;P2;SDS_P1;SDS_P2;PMS_P1;PMS_P2;Temp;Humidity;BMP_temperature;BMP_pressure;BME280_temperature;BME280_humidity;BME280_pressure;Samples;Min_cycle;Max_cycle;Signal;HPM_P1;HPM_P2
2023/05/21 00:01:15;;;;;;;9.20;4.90;;;;;;;;;;5070769;28;20017;-70
2023/05/21 00:03:48;;;;;;;8.17;4.97;;;;;;;;;;5077093;28;20044;-70
2023/05/21 00:06:14;;;;;;;10.20;5.17;;;;;;;;;;5036936;28;20068;-70
2023/05/21 00:08:39;;;;;;;9.47;5.50;;;;;;;;;;5037072;28;20045;-70
2023/05/21 00:11:05;;;;;;;12.23;5.87;;;;;;;;;;5019423;28;20101;-69
2023/05/21 00:13:30;;;;;;;11.57;6.00;;;;;;;;;;5022792;28;20026;-70
2023/05/21 00:15:56;;;;;;;12.40;5.87;;;;;;;;;;5036667;28;20017;-70
2023/05/21 00:18:21;;;;;;;9.33;5.83;;;;;;;;;;5036147;28;20056;-70
2023/05/21 00:20:46;;;;;;;9.90;5.67;;;;;;;;;;5033773;28;20040;-70
2023/05/21 00:23:12;;;;;;;9.93;6.03;;;;;;;;;;5036807;28;20382;-70
2023/05/21 00:25:37;;;;;;;11.20;5.90;;;;;;;;;;5036345;28;20040;-70
2023/05/21 00:28:02;;;;;;;11.73;6.20;;;;;;;;;;5035701;28;20024;-70
2023/05/21 00:30:28;;;;;;;13.03;6.57;;;;;;;;;;5035601;28;20090;-70
2023/05/21 00:32:53;;;;;;;10.00;6.20;;;;;;;;;;5035956;28;20045;-70
2023/05/21 00:35:18;;;;;;;11.40;6.77;;;;;;;;;;5036730;28;20029;-70
2023/05/21 00:37:44;;;;;;;10.43;6.20;;;;;;;;;;5035395;28;20396;-70
2023/05/21 00:40:10;;;;;;;11.93;6.33;;;;;;;;;;5035299;28;20056;-70
2023/05/21 00:42:39;;;;;;;9.97;6.57;;;;;;;;;;5035096;28;20579;-70
2023/05/21 00:45:05;;;;;;;11.50;6.60;;;;;;;;;;5033226;28;20116;-70
2023/05/21 00:47:30;;;;;;;13.00;6.00;;;;;;;;;;5035341;28;20049;-70
2023/05/21 00:49:56;;;;;;;11.03;6.60;;;;;;;;;;5034954;28;20085;-70
2023/05/21 00:52:21;;;;;;;11.20;6.50;;;;;;;;;;5035401;28;20021;-70
2023/05/21 00:54:50;;;;;;;10.27;6.50;;;;;;;;;;5034902;28;20370;-70
2023/05/21 00:57:19;;;;;;;10.53;6.13;;;;;;;;;;5034084;28;20045;-70
2023/05/21 00:59:45;;;;;;;10.73;5.87;;;;;;;;;;5035109;28;20047;-70
2023/05/21 01:02:13;;;;;;;12.30;5.80;;;;;;;;;;5052878;23;20094;-70
2023/05/21 01:04:38;;;;;;;12.37;6.13;;;;;;;;;;5073198;28;20085;-71
2023/05/21 01:07:05;;;;;;;11.40;6.40;;;;;;;;;;5069734;28;20103;-70
2023/05/21 01:09:30;;;;;;;9.30;6.00;;;;;;;;;;5074971;28;20032;-70
2023/05/21 01:11:55;;;;;;;10.03;6.23;;;;;;;;;;5074555;28;20017;-70
2023/05/21 01:14:21;;;;;;;12.03;7.20;;;;;;;;;;5057026;28;20480;-71
2023/05/21 01:16:48;;;;;;;12.53;6.60;;;;;;;;;;5073090;28;20024;-70
2023/05/21 01:19:17;;;;;;;12.40;6.67;;;;;;;;;;5074894;28;20032;-71
2023/05/21 01:21:52;;;;;;;14.17;6.33;;;;;;;;;;5075011;28;20063;-70
2023/05/21 01:24:18;;;;;;;9.47;6.07;;;;;;;;;;5074783;28;20036;-70
2023/05/21 01:26:45;;;;;;;12.43;6.07;;;;;;;;;;5075444;28;20020;-70
2023/05/21 01:29:11;;;;;;;11.90;6.13;;;;;;;;;;5072540;28;20468;-70
2023/05/21 01:32:00;;;;;;;11.03;6.50;;;;;;;;;;5074456;28;20036;-70
2023/05/21 01:34:29;;;;;;;11.10;6.20;;;;;;;;;;5031243;28;20037;-70
2023/05/21 01:36:57;;;;;;;10.13;6.00;;;;;;;;;;5032578;28;20036;-70
2023/05/21 01:39:27;;;;;;;10.20;6.10;;;;;;;;;;5041533;28;20037;-71
2023/05/21 01:41:54;;;;;;;9.37;5.73;;;;;;;;;;5032527;28;20044;-70
2023/05/21 01:44:21;;;;;;;9.40;5.63;;;;;;;;;;5032541;28;20033;-70
2023/05/21 01:46:46;;;;;;;12.03;6.17;;;;;;;;;;5032460;28;20026;-70
2023/05/21 01:49:12;;;;;;;12.47;6.10;;;;;;;;;;5032450;28;20498;-71
2023/05/21 01:51:37;;;;;;;10.07;5.77;;;;;;;;;;5032785;28;20098;-70
2023/05/21 01:54:03;;;;;;;12.27;5.93;;;;;;;;;;5032174;28;20022;-70
2023/05/21 01:56:28;;;;;;;10.17;5.87;;;;;;;;;;5032431;28;20075;-70
2023/05/21 01:58:57;;;;;;;10.70;6.23;;;;;;;;;;5015681;28;20044;-70
2023/05/21 02:01:22;;;;;;;12.83;6.03;;;;;;;;;;5032449;28;20113;-71
2023/05/21 02:03:48;;;;;;;10.83;5.60;;;;;;;;;;5030950;28;20188;-70
2023/05/21 02:06:13;;;;;;;11.23;5.67;;;;;;;;;;5030923;28;20496;-70
2023/05/21 02:08:39;;;;;;;11.90;5.33;;;;;;;;;;5061005;28;20043;-70
2023/05/21 02:11:04;;;;;;;9.10;5.23;;;;;;;;;;5057887;28;20013;-70
2023/05/21 02:13:31;;;;;;;9.63;4.80;;;;;;;;;;5060933;28;20052;-70
2023/05/21 02:15:56;;;;;;;8.00;4.73;;;;;;;;;;5053218;28;20032;-70
2023/05/21 02:18:21;;;;;;;12.07;6.07;;;;;;;;;;5074117;28;20017;-70
2023/05/21 02:20:47;;;;;;;9.20;4.60;;;;;;;;;;5074112;28;20028;-70
2023/05/21 02:23:12;;;;;;;12.17;5.43;;;;;;;;;;5073699;28;20020;-70
2023/05/21 02:25:37;;;;;;;13.30;5.33;;;;;;;;;;5073633;28;20025;-71
2023/05/21 02:28:03;;;;;;;10.47;5.00;;;;;;;;;;5073955;28;21332;-70
2023/05/21 02:30:28;;;;;;;10.47;4.80;;;;;;;;;;5073057;28;20029;-71
2023/05/21 02:32:54;;;;;;;10.57;4.70;;;;;;;;;;5073809;28;20044;-70
2023/05/21 02:35:19;;;;;;;9.67;5.37;;;;;;;;;;5073565;28;20423;-70
2023/05/21 02:37:44;;;;;;;8.63;4.57;;;;;;;;;;5073030;28;20025;-69
2023/05/21 02:40:10;;;;;;;10.10;4.73;;;;;;;;;;5073255;28;20145;-69
2023/05/21 02:42:38;;;;;;;11.63;5.03;;;;;;;;;;5073019;28;20374;-72
2023/05/21 02:45:03;;;;;;;11.30;5.27;;;;;;;;;;5072842;28;20012;-72
2023/05/21 02:47:29;;;;;;;9.73;5.17;;;;;;;;;;5073053;28;20495;-72
2023/05/21 02:49:54;;;;;;;11.47;4.93;;;;;;;;;;5073224;28;20021;-72
2023/05/21 02:52:22;;;;;;;8.90;5.03;;;;;;;;;;5072769;28;20522;-72
2023/05/21 02:54:48;;;;;;;9.83;5.60;;;;;;;;;;5072451;28;20085;-72
2023/05/21 02:57:13;;;;;;;14.03;5.67;;;;;;;;;;5073404;28;20005;-72
2023/05/21 02:59:38;;;;;;;13.43;5.80;;;;;;;;;;5072557;28;20024;-72
2023/05/21 03:02:04;;;;;;;12.30;5.43;;;;;;;;;;5071453;28;20033;-72
2023/05/21 03:04:29;;;;;;;10.07;4.93;;;;;;;;;;5072468;28;20032;-72
2023/05/21 03:06:55;;;;;;;12.10;5.73;;;;;;;;;;5068268;28;20024;-72
2023/05/21 03:09:21;;;;;;;12.10;5.27;;;;;;;;;;5072608;28;20093;-72
2023/05/21 03:11:46;;;;;;;16.17;5.90;;;;;;;;;;5073111;28;20024;-72
2023/05/21 03:14:12;;;;;;;10.57;5.20;;;;;;;;;;5072414;28;20005;-72
2023/05/21 03:16:40;;;;;;;12.27;4.90;;;;;;;;;;5073290;28;20016;-72
2023/05/21 03:19:05;;;;;;;9.73;4.97;;;;;;;;;;5071218;28;20028;-72
2023/05/21 03:21:31;;;;;;;13.10;5.27;;;;;;;;;;5070343;28;20025;-73
2023/05/21 03:23:59;;;;;;;10.50;4.50;;;;;;;;;;5071481;28;20096;-72
2023/05/21 03:26:28;;;;;;;10.30;5.13;;;;;;;;;;5071672;28;20476;-72
2023/05/21 03:28:53;;;;;;;12.10;5.53;;;;;;;;;;5072355;28;20016;-72
2023/05/21 03:31:19;;;;;;;11.60;5.00;;;;;;;;;;5072830;28;20017;-72
2023/05/21 03:33:44;;;;;;;11.43;4.67;;;;;;;;;;5072336;28;20377;-72
2023/05/21 03:36:10;;;;;;;11.00;4.77;;;;;;;;;;5072560;28;20056;-72
2023/05/21 03:38:35;;;;;;;11.47;4.63;;;;;;;;;;5072094;28;20017;-72
2023/05/21 03:41:00;;;;;;;12.53;4.93;;;;;;;;;;5072436;28;20092;-72
2023/05/21 03:43:26;;;;;;;10.50;4.37;;;;;;;;;;5072752;28;20063;-72
2023/05/21 03:45:51;;;;;;;11.47;4.37;;;;;;;;;;5072159;28;20024;-72
2023/05/21 03:48:17;;;;;;;12.67;4.93;;;;;;;;;;5072369;28;20009;-72
2023/05/21 03:50:42;;;;;;;11.47;4.80;;;;;;;;;;5072523;28;20485;-72
2023/05/21 03:53:09;;;;;;;11.17;4.50;;;;;;;;;;5072339;28;20487;-72
2023/05/21 03:55:35;;;;;;;8.70;4.50;;;;;;;;;;5072524;28;20031;-72
2023/05/21 03:58:00;;;;;;;12.20;4.90;;;;;;;;;;5072319;28;20024;-72
2023/05/21 04:00:26;;;;;;;12.80;4.57;;;;;;;;;;5072255;28;20106;-72
2023/05/21 04:02:51;;;;;;;8.67;3.97;;;;;;;;;;5064339;28;20044;-72
2023/05/21 04:05:17;;;;;;;10.33;4.80;;;;;;;;;;5069279;28;20116;-72
2023/05/21 04:07:45;;;;;;;9.43;4.30;;;;;;;;;;5066127;28;20025;-72
2023/05/21 04:10:10;;;;;;;9.67;4.90;;;;;;;;;;5070552;28;20070;-72
2023/05/21 04:12:35;;;;;;;9.63;4.17;;;;;;;;;;5072323;28;20484;-73
2023/05/21 04:15:01;;;;;;;9.00;4.20;;;;;;;;;;5066315;28;20063;-72
2023/05/21 04:17:27;;;;;;;9.70;3.97;;;;;;;;;;5071850;28;20457;-72
2023/05/21 04:19:53;;;;;;;9.57;4.70;;;;;;;;;;5072319;28;20024;-72
2023/05/21 04:22:18;;;;;;;11.77;3.77;;;;;;;;;;5072201;28;20082;-72
2023/05/21 04:24:45;;;;;;;13.17;4.30;;;;;;;;;;5072602;28;20020;-72
2023/05/21 04:27:10;;;;;;;10.37;4.70;;;;;;;;;;5072160;28;20035;-72
2023/05/21 04:29:36;;;;;;;10.70;4.57;;;;;;;;;;5071532;28;20097;-72
2023/05/21 04:32:02;;;;;;;8.53;4.23;;;;;;;;;;5067533;28;20052;-72
2023/05/21 04:34:28;;;;;;;11.60;4.67;;;;;;;;;;5072274;28;20469;-72
2023/05/21 04:36:53;;;;;;;13.10;4.30;;;;;;;;;;5075714;28;20074;-72
2023/05/21 04:39:19;;;;;;;9.03;3.87;;;;;;;;;;5075479;28;20491;-72
2023/05/21 04:41:44;;;;;;;8.73;4.50;;;;;;;;;;5075659;28;20046;-72
2023/05/21 04:44:09;;;;;;;10.13;4.20;;;;;;;;;;5056494;28;20024;-72
2023/05/21 04:46:35;;;;;;;7.87;3.90;;;;;;;;;;5075330;28;20404;-72
2023/05/21 04:49:03;;;;;;;10.67;4.20;;;;;;;;;;5075530;28;20081;-72
2023/05/21 04:51:32;;;;;;;8.57;4.00;;;;;;;;;;5075747;28;20384;-72
2023/05/21 04:53:57;;;;;;;8.37;3.70;;;;;;;;;;5075772;28;20043;-72
2023/05/21 04:56:26;;;;;;;6.83;3.97;;;;;;;;;;5075271;28;20021;-72
2023/05/21 04:58:52;;;;;;;10.17;4.30;;;;;;;;;;5071875;28;20078;-72
2023/05/21 05:01:18;;;;;;;10.07;4.83;;;;;;;;;;5075055;28;20032;-72
2023/05/21 05:03:44;;;;;;;9.10;4.73;;;;;;;;;;5075247;28;20044;-72
2023/05/21 05:06:09;;;;;;;7.50;4.03;;;;;;;;;;5057161;28;20016;-72
2023/05/21 05:08:35;;;;;;;8.20;3.70;;;;;;;;;;5062492;28;20047;-72
2023/05/21 05:11:00;;;;;;;8.13;4.33;;;;;;;;;;5075735;28;20024;-72
2023/05/21 05:13:26;;;;;;;9.83;4.23;;;;;;;;;;5064731;28;20534;-72
2023/05/21 05:15:52;;;;;;;12.10;4.03;;;;;;;;;;5055783;28;20021;-72
2023/05/21 05:18:18;;;;;;;9.33;4.23;;;;;;;;;;5064210;28;20066;-73
2023/05/21 05:20:43;;;;;;;10.40;4.20;;;;;;;;;;5075532;28;20024;-72
2023/05/21 05:23:08;;;;;;;6.70;3.90;;;;;;;;;;5075412;28;20442;-72
2023/05/21 05:25:34;;;;;;;9.93;3.83;;;;;;;;;;5075427;28;20023;-73
2023/05/21 05:27:59;;;;;;;7.63;4.10;;;;;;;;;;5075281;28;20078;-73
2023/05/21 05:30:24;;;;;;;10.85;3.80;;;;;;;;;;5075497;28;20460;-73
2023/05/21 05:32:50;;;;;;;7.15;3.28;;;;;;;;;;5074833;28;20021;-73
2023/05/21 05:35:15;;;;;;;7.75;3.28;;;;;;;;;;5075542;28;20070;-73
2023/05/21 05:37:40;;;;;;;7.57;3.70;;;;;;;;;;5075075;28;20024;-73
2023/05/21 05:40:06;;;;;;;7.63;3.75;;;;;;;;;;5075136;28;20437;-73
2023/05/21 05:42:32;;;;;;;7.72;4.05;;;;;;;;;;5074153;28;20027;-72
2023/05/21 05:44:57;;;;;;;8.85;3.58;;;;;;;;;;5074853;28;20012;-71
2023/05/21 05:47:22;;;;;;;10.30;3.75;;;;;;;;;;5073903;28;20129;-71
2023/05/21 05:49:48;;;;;;;7.85;3.33;;;;;;;;;;5074973;28;20460;-71
2023/05/21 05:52:13;;;;;;;9.07;3.58;;;;;;;;;;5074930;28;20008;-71
2023/05/21 05:54:38;;;;;;;6.88;3.45;;;;;;;;;;5074734;28;20017;-71
2023/05/21 05:57:04;;;;;;;7.35;3.33;;;;;;;;;;5059793;28;20017;-71
2023/05/21 05:59:29;;;;;;;7.10;3.60;;;;;;;;;;5058340;28;20013;-71
2023/05/21 06:01:54;;;;;;;8.77;3.97;;;;;;;;;;5074853;28;20184;-71
2023/05/21 06:04:20;;;;;;;7.65;3.55;;;;;;;;;;5073424;28;20451;-73
2023/05/21 06:06:46;;;;;;;9.15;3.80;;;;;;;;;;5071785;28;20028;-73
2023/05/21 06:09:11;;;;;;;9.13;3.80;;;;;;;;;;5071950;28;20025;-73
2023/05/21 06:11:36;;;;;;;8.88;3.80;;;;;;;;;;5074449;28;20038;-73
2023/05/21 06:14:02;;;;;;;9.32;3.70;;;;;;;;;;5070351;28;20069;-73
2023/05/21 06:16:27;;;;;;;8.48;3.70;;;;;;;;;;5074112;28;20032;-71
2023/05/21 06:18:53;;;;;;;8.20;3.92;;;;;;;;;;5070562;28;20102;-73
2023/05/21 06:21:18;;;;;;;7.28;3.95;;;;;;;;;;5060997;28;20473;-74
2023/05/21 06:23:43;;;;;;;6.63;3.67;;;;;;;;;;5074069;28;20147;-73
2023/05/21 06:26:08;;;;;;;9.70;4.38;;;;;;;;;;5074223;28;20389;-73
2023/05/21 06:28:35;;;;;;;7.18;3.80;;;;;;;;;;5074085;28;20491;-73
2023/05/21 06:31:00;;;;;;;6.68;3.50;;;;;;;;;;5074029;28;20022;-73
2023/05/21 06:33:28;;;;;;;8.18;3.75;;;;;;;;;;5073294;28;20111;-73
2023/05/21 06:35:54;;;;;;;7.43;4.05;;;;;;;;;;5074142;28;20020;-73
2023/05/21 06:38:19;;;;;;;9.88;4.05;;;;;;;;;;5074209;28;20362;-74
2023/05/21 06:40:46;;;;;;;9.50;4.22;;;;;;;;;;5073781;28;20070;-73
2023/05/21 06:43:12;;;;;;;9.25;4.50;;;;;;;;;;5074085;28;20024;-73
2023/05/21 06:45:37;;;;;;;9.20;4.13;;;;;;;;;;5073681;28;20024;-73
2023/05/21 06:48:02;;;;;;;9.52;4.30;;;;;;;;;;5072854;28;20019;-73
2023/05/21 06:50:28;;;;;;;8.57;4.47;;;;;;;;;;5073582;28;20031;-73
2023/05/21 06:52:53;;;;;;;9.55;4.47;;;;;;;;;;5073855;28;20028;-73
2023/05/21 06:55:18;;;;;;;7.82;4.35;;;;;;;;;;5073821;28;20364;-71
2023/05/21 06:57:43;;;;;;;8.43;4.47;;;;;;;;;;5073446;28;20013;-71
2023/05/21 07:00:09;;;;;;;8.60;4.60;;;;;;;;;;5073840;28;20012;-71
2023/05/21 07:02:35;;;;;;;8.38;4.25;;;;;;;;;;5073424;28;20559;-71
2023/05/21 07:05:00;;;;;;;8.93;4.30;;;;;;;;;;5073452;28;20362;-71
2023/05/21 07:07:26;;;;;;;7.80;4.15;;;;;;;;;;5062727;28;20017;-71
2023/05/21 07:09:51;;;;;;;7.80;4.43;;;;;;;;;;5070620;28;20089;-71
2023/05/21 07:12:16;;;;;;;9.38;4.68;;;;;;;;;;5042429;28;20443;-71
2023/05/21 07:14:42;;;;;;;11.63;4.70;;;;;;;;;;5053305;28;20414;-71
2023/05/21 07:17:07;;;;;;;8.25;4.53;;;;;;;;;;5053254;28;20025;-72
2023/05/21 07:19:32;;;;;;;12.43;4.70;;;;;;;;;;5053497;28;20028;-71
2023/05/21 07:21:57;;;;;;;10.65;4.93;;;;;;;;;;5053391;28;20021;-71
2023/05/21 07:24:23;;;;;;;11.25;5.80;;;;;;;;;;5053102;28;20096;-71
2023/05/21 07:26:48;;;;;;;8.23;4.95;;;;;;;;;;5053356;28;20056;-71
2023/05/21 07:29:13;;;;;;;7.85;4.80;;;;;;;;;;5070019;28;20025;-71
2023/05/21 07:31:39;;;;;;;9.75;5.43;;;;;;;;;;5073356;28;20372;-71
2023/05/21 07:34:04;;;;;;;10.75;5.28;;;;;;;;;;5073399;28;20020;-71
2023/05/21 07:36:29;;;;;;;11.05;5.72;;;;;;;;;;5073046;28;20024;-73
2023/05/21 07:38:55;;;;;;;10.63;5.50;;;;;;;;;;5073019;28;20024;-73
2023/05/21 07:41:21;;;;;;;10.95;5.32;;;;;;;;;;5073042;28;20021;-73
2023/05/21 07:43:46;;;;;;;11.05;5.88;;;;;;;;;;5073210;28;20028;-73
2023/05/21 07:46:12;;;;;;;10.32;5.18;;;;;;;;;;5073106;28;20440;-73
2023/05/21 07:48:37;;;;;;;9.90;5.30;;;;;;;;;;5072948;28;20027;-73
2023/05/21 07:51:02;;;;;;;10.13;5.30;;;;;;;;;;5072041;28;20464;-73
2023/05/21 07:53:31;;;;;;;9.40;5.30;;;;;;;;;;5073128;28;20017;-73
2023/05/21 07:55:56;;;;;;;11.05;5.95;;;;;;;;;;5073083;28;20465;-74
2023/05/21 07:58:22;;;;;;;12.32;5.80;;;;;;;;;;5072896;28;20031;-73
2023/05/21 08:00:47;;;;;;;10.65;5.60;;;;;;;;;;5072932;28;20031;-73
2023/05/21 08:03:15;;;;;;;13.07;5.82;;;;;;;;;;5072653;28;20127;-73
2023/05/21 08:05:40;;;;;;;10.02;6.07;;;;;;;;;;5071213;28;20491;-73
2023/05/21 08:08:05;;;;;;;9.68;5.82;;;;;;;;;;5058862;28;20041;-73
2023/05/21 08:10:30;;;;;;;10.75;5.60;;;;;;;;;;5055464;28;20029;-73
2023/05/21 08:12:56;;;;;;;9.45;5.88;;;;;;;;;;5056704;28;20024;-73
2023/05/21 08:15:22;;;;;;;10.15;6.03;;;;;;;;;;5056764;28;20470;-73
2023/05/21 08:17:47;;;;;;;10.25;6.05;;;;;;;;;;5056847;28;20035;-73
2023/05/21 08:20:13;;;;;;;9.60;5.15;;;;;;;;;;5057681;28;20427;-73
2023/05/21 08:22:38;;;;;;;10.68;6.07;;;;;;;;;;5072542;28;20028;-73
2023/05/21 08:25:04;;;;;;;12.18;6.30;;;;;;;;;;5074812;28;20024;-73
2023/05/21 08:27:29;;;;;;;9.75;6.07;;;;;;;;;;5076606;28;20078;-73
2023/05/21 08:29:54;;;;;;;11.00;6.35;;;;;;;;;;5076159;28;20024;-73
2023/05/21 08:32:20;;;;;;;10.90;5.88;;;;;;;;;;5075899;28;20024;-73
2023/05/21 08:34:45;;;;;;;10.88;5.95;;;;;;;;;;5075969;28;20028;-73
2023/05/21 08:37:10;;;;;;;11.00;5.85;;;;;;;;;;5076464;28;20043;-73
2023/05/21 08:39:35;;;;;;;10.65;6.20;;;;;;;;;;5067652;28;20496;-74
2023/05/21 08:42:10;;;;;;;9.52;5.90;;;;;;;;;;5061252;28;20025;-73
2023/05/21 08:44:36;;;;;;;10.60;6.45;;;;;;;;;;5076229;28;20100;-73
2023/05/21 08:47:05;;;;;;;11.98;6.32;;;;;;;;;;5076035;28;20020;-73
2023/05/21 08:49:33;;;;;;;11.40;6.07;;;;;;;;;;5075920;28;20027;-73
2023/05/21 08:51:58;;;;;;;10.85;6.28;;;;;;;;;;5075200;28;20432;-73
2023/05/21 08:54:24;;;;;;;10.98;6.88;;;;;;;;;;5075783;28;20041;-74
2023/05/21 08:56:49;;;;;;;11.82;6.32;;;;;;;;;;5075757;28;20099;-73
2023/05/21 08:59:15;;;;;;;11.30;6.88;;;;;;;;;;5076140;28;20104;-74
2023/05/21 09:01:42;;;;;;;10.25;6.70;;;;;;;;;;5061739;28;20024;-74
2023/05/21 09:04:07;;;;;;;10.63;6.85;;;;;;;;;;5056768;28;20049;-73
2023/05/21 09:06:33;;;;;;;9.95;6.25;;;;;;;;;;5055887;28;20426;-74
2023/05/21 09:09:01;;;;;;;13.48;7.40;;;;;;;;;;5055871;28;20380;-73
2023/05/21 09:11:26;;;;;;;11.40;7.13;;;;;;;;;;5055902;28;20056;-73
2023/05/21 09:13:52;;;;;;;13.00;8.30;;;;;;;;;;5055828;28;20386;-73
2023/05/21 09:16:17;;;;;;;12.60;7.93;;;;;;;;;;5072649;28;20483;-74
2023/05/21 09:18:42;;;;;;;13.15;7.32;;;;;;;;;;5075760;28;20357;-73
2023/05/21 09:21:27;;;;;;;13.68;7.53;;;;;;;;;;5064102;28;20013;-73
2023/05/21 09:23:59;;;;;;;12.48;7.13;;;;;;;;;;5066327;28;20140;-74
2023/05/21 09:26:25;;;;;;;18.85;8.00;;;;;;;;;;5075262;28;20012;-74
2023/05/21 09:28:51;;;;;;;12.65;7.47;;;;;;;;;;5075510;28;20536;-73
2023/05/21 09:31:16;;;;;;;11.27;7.30;;;;;;;;;;5075489;28;20096;-73
2023/05/21 09:33:45;;;;;;;11.80;7.93;;;;;;;;;;5075409;28;20096;-74
2023/05/21 09:36:10;;;;;;;13.73;7.97;;;;;;;;;;5075372;28;20016;-74
2023/05/21 09:38:35;;;;;;;12.50;7.90;;;;;;;;;;5056669;28;20048;-73
2023/05/21 09:41:03;;;;;;;13.50;7.95;;;;;;;;;;5064176;28;20496;-74
2023/05/21 09:43:29;;;;;;;12.65;7.72;;;;;;;;;;5074988;28;20032;-74
2023/05/21 09:45:55;;;;;;;17.40;8.10;;;;;;;;;;5075000;28;20054;-73
2023/05/21 09:48:37;;;;;;;11.93;8.18;;;;;;;;;;5075214;28;20095;-74
2023/05/21 09:51:02;;;;;;;;;;;;;;;;;;5075122;28;20032;-74
2023/05/21 09:53:28;;;;;;;13.23;8.27;;;;;;;;;;5074928;28;19995;-74
2023/05/21 09:55:56;;;;;;;14.55;8.15;;;;;;;;;;5071740;28;20251;-73
2023/05/21 09:58:21;;;;;;;14.35;8.40;;;;;;;;;;5054653;28;20044;-73
2023/05/21 10:00:47;;;;;;;12.75;8.00;;;;;;;;;;5057240;28;20067;-73
2023/05/21 10:03:13;;;;;;;11.90;8.02;;;;;;;;;;5054497;28;20049;-74
2023/05/21 10:05:40;;;;;;;13.82;8.52;;;;;;;;;;5054804;28;20033;-74
2023/05/21 10:08:08;;;;;;;12.38;8.50;;;;;;;;;;5068433;28;20274;-74
2023/05/21 10:10:34;;;;;;;11.90;7.97;;;;;;;;;;5074405;28;20025;-74
2023/05/21 10:13:03;;;;;;;13.68;8.95;;;;;;;;;;5074684;28;20025;-74
2023/05/21 10:15:30;;;;;;;13.98;8.63;;;;;;;;;;5074333;28;20020;-74
2023/05/21 10:17:56;;;;;;;14.13;8.80;;;;;;;;;;5074230;28;20078;-74
2023/05/21 10:20:21;;;;;;;13.40;8.45;;;;;;;;;;5074382;28;20029;-74
2023/05/21 10:22:47;;;;;;;13.73;8.93;;;;;;;;;;5074034;28;20028;-74
2023/05/21 10:25:12;;;;;;;12.98;8.50;;;;;;;;;;5069414;28;20434;-74
2023/05/21 10:27:38;;;;;;;11.90;8.25;;;;;;;;;;5071727;28;20043;-74
2023/05/21 10:30:04;;;;;;;13.30;8.50;;;;;;;;;;5073866;28;20071;-74
2023/05/21 10:32:30;;;;;;;11.85;8.75;;;;;;;;;;5073617;28;20043;-73
2023/05/21 10:34:56;;;;;;;14.00;8.82;;;;;;;;;;5074235;28;20031;-74
2023/05/21 10:37:27;;;;;;;11.82;8.07;;;;;;;;;;5065807;28;20342;-74
2023/05/21 10:39:55;;;;;;;15.23;10.07;;;;;;;;;;5053905;28;20025;-73
2023/05/21 10:42:40;;;;;;;16.00;10.15;;;;;;;;;;5053909;28;20017;-74
2023/05/21 10:45:35;;;;;;;15.07;9.75;;;;;;;;;;5053215;28;20481;-74
2023/05/21 10:48:30;;;;;;;13.27;9.20;;;;;;;;;;4965566;28;20447;-74
2023/05/21 10:51:09;;;;;;;13.07;8.48;;;;;;;;;;4965433;28;20499;-74
2023/05/21 10:54:01;;;;;;;16.48;9.52;;;;;;;;;;5054009;28;20025;-74
2023/05/21 10:56:55;;;;;;;11.82;8.63;;;;;;;;;;4972641;28;20039;-74
2023/05/21 10:59:43;;;;;;;13.48;9.48;;;;;;;;;;4921584;28;20145;-73
2023/05/21 11:02:10;;;;;;;13.52;8.70;;;;;;;;;;4966730;28;20076;-74
2023/05/21 11:04:38;;;;;;;13.23;8.38;;;;;;;;;;4971425;28;20496;-73
2023/05/21 11:07:04;;;;;;;16.23;9.02;;;;;;;;;;4972424;28;20142;-74
2023/05/21 11:09:30;;;;;;;14.68;9.50;;;;;;;;;;4972641;28;20443;-74
2023/05/21 11:11:57;;;;;;;16.63;9.13;;;;;;;;;;4972554;28;20023;-74
2023/05/21 11:14:37;;;;;;;14.15;8.95;;;;;;;;;;4972578;28;20057;-73
2023/05/21 11:17:12;;;;;;;14.30;9.40;;;;;;;;;;4986326;28;20026;-73
2023/05/21 11:19:42;;;;;;;13.50;9.10;;;;;;;;;;4991879;28;20108;-73
2023/05/21 11:22:08;;;;;;;13.70;9.13;;;;;;;;;;4991883;28;20022;-73
2023/05/21 11:24:38;;;;;;;13.32;9.75;;;;;;;;;;4972539;28;20035;-74
2023/05/21 11:27:04;;;;;;;13.38;9.07;;;;;;;;;;4972316;28;20034;-74
2023/05/21 11:29:39;;;;;;;14.98;9.73;;;;;;;;;;4971590;28;20382;-74
2023/05/21 11:32:05;;;;;;;13.05;9.40;;;;;;;;;;4975714;28;20073;-74
2023/05/21 11:34:46;;;;;;;15.07;8.98;;;;;;;;;;5069333;28;20032;-74
2023/05/21 11:37:30;;;;;;;12.95;9.13;;;;;;;;;;5071944;28;20017;-74
2023/05/21 11:39:56;;;;;;;14.05;9.82;;;;;;;;;;5071434;28;20028;-74
2023/05/21 11:42:32;;;;;;;15.52;9.32;;;;;;;;;;5072909;28;20115;-74
2023/05/21 11:44:58;;;;;;;14.00;8.90;;;;;;;;;;5072186;28;20074;-74
2023/05/21 11:47:25;;;;;;;12.77;9.63;;;;;;;;;;5073167;28;20346;-74
2023/05/21 11:49:50;;;;;;;13.73;9.45;;;;;;;;;;5073098;28;20036;-74
2023/05/21 11:52:15;;;;;;;14.95;9.85;;;;;;;;;;5072778;28;20016;-73
2023/05/21 11:54:53;;;;;;;15.77;9.75;;;;;;;;;;5072756;28;20100;-74
2023/05/21 11:57:19;;;;;;;14.07;9.32;;;;;;;;;;5072913;28;20013;-74
2023/05/21 11:59:45;;;;;;;17.88;9.68;;;;;;;;;;5072699;28;20020;-74
2023/05/21 12:02:17;;;;;;;14.38;9.63;;;;;;;;;;5068426;28;20137;-74
2023/05/21 12:04:44;;;;;;;14.27;9.10;;;;;;;;;;5035578;28;20060;-73
2023/05/21 12:07:09;;;;;;;15.35;8.50;;;;;;;;;;5033009;28;20037;-74
2023/05/21 12:09:45;;;;;;;13.52;9.13;;;;;;;;;;5044390;28;20337;-73
2023/05/21 12:12:12;;;;;;;12.27;8.93;;;;;;;;;;5052617;28;20017;-73
2023/05/21 12:14:37;;;;;;;17.48;9.80;;;;;;;;;;5052494;28;20032;-74
2023/05/21 12:17:03;;;;;;;11.70;8.35;;;;;;;;;;5052277;28;20021;-74
2023/05/21 12:19:32;;;;;;;15.18;9.63;;;;;;;;;;5052706;28;20025;-74
2023/05/21 12:21:59;;;;;;;13.05;9.45;;;;;;;;;;5052860;28;20489;-73
2023/05/21 12:24:24;;;;;;;15.73;8.43;;;;;;;;;;5034734;28;20021;-73
2023/05/21 12:26:50;;;;;;;12.60;9.02;;;;;;;;;;5052441;28;20025;-74
2023/05/21 12:29:16;;;;;;;15.73;9.65;;;;;;;;;;5052366;28;20033;-74
2023/05/21 12:31:50;;;;;;;14.45;8.80;;;;;;;;;;5052306;28;20104;-73
2023/05/21 12:34:35;;;;;;;14.70;9.63;;;;;;;;;;5036346;28;20021;-74
2023/05/21 12:37:00;;;;;;;12.80;9.32;;;;;;;;;;5032442;28;20068;-74
2023/05/21 12:39:26;;;;;;;14.70;9.50;;;;;;;;;;5032583;28;20022;-73
2023/05/21 12:41:53;;;;;;;14.18;9.02;;;;;;;;;;5032315;28;20025;-73
2023/05/21 12:44:18;;;;;;;13.43;8.40;;;;;;;;;;5032412;28;20018;-74
2023/05/21 12:46:43;;;;;;;12.15;8.63;;;;;;;;;;5032673;28;20038;-74
2023/05/21 12:49:28;;;;;;;13.45;9.70;;;;;;;;;;5032691;28;20369;-73
2023/05/21 12:51:55;;;;;;;11.70;7.28;;;;;;;;;;5030017;28;20060;-74
2023/05/21 12:54:26;;;;;;;13.15;8.60;;;;;;;;;;5029384;28;20380;-73
2023/05/21 12:56:52;;;;;;;12.88;8.15;;;;;;;;;;5015257;28;20025;-73
2023/05/21 12:59:17;;;;;;;12.77;8.50;;;;;;;;;;5016273;28;20025;-74
2023/05/21 13:01:46;;;;;;;13.15;8.80;;;;;;;;;;5015857;28;20522;-74
2023/05/21 13:04:11;;;;;;;11.07;8.40;;;;;;;;;;5034062;28;20410;-74
2023/05/21 13:06:42;;;;;;;12.20;8.43;;;;;;;;;;5036001;28;20025;-74
2023/05/21 13:09:07;;;;;;;11.30;7.78;;;;;;;;;;5035899;28;20029;-74
2023/05/21 13:11:33;;;;;;;13.48;8.60;;;;;;;;;;5072299;28;20043;-73
2023/05/21 13:13:58;;;;;;;12.55;8.45;;;;;;;;;;5075586;28;20043;-72
2023/05/21 13:16:23;;;;;;;13.35;8.20;;;;;;;;;;5075463;28;20070;-72
2023/05/21 13:18:49;;;;;;;13.32;8.60;;;;;;;;;;5075243;28;20050;-72
2023/05/21 13:21:14;;;;;;;14.32;7.78;;;;;;;;;;5075188;28;20074;-72
2023/05/21 13:23:39;;;;;;;12.38;8.13;;;;;;;;;;5074625;28;20013;-72
2023/05/21 13:26:05;;;;;;;14.13;8.68;;;;;;;;;;5075577;28;20024;-73
2023/05/21 13:28:30;;;;;;;11.70;8.63;;;;;;;;;;5073010;28;20023;-72
2023/05/21 13:30:55;;;;;;;14.60;8.70;;;;;;;;;;5055093;28;20021;-73
2023/05/21 13:33:21;;;;;;;12.63;8.35;;;;;;;;;;5055427;28;20383;-73
2023/05/21 13:35:49;;;;;;;14.15;8.82;;;;;;;;;;5055018;28;20028;-73
2023/05/21 13:38:15;;;;;;;13.20;8.40;;;;;;;;;;5054797;28;20017;-72
2023/05/21 13:40:40;;;;;;;12.18;7.97;;;;;;;;;;5054679;28;20021;-72
2023/05/21 13:43:06;;;;;;;13.13;8.45;;;;;;;;;;5054692;28;20059;-72
2023/05/21 13:45:32;;;;;;;12.38;8.45;;;;;;;;;;5054774;28;20029;-72
2023/05/21 13:47:58;;;;;;;11.23;8.07;;;;;;;;;;5054783;28;20028;-73
2023/05/21 13:50:23;;;;;;;12.02;8.60;;;;;;;;;;5054816;28;20024;-72
2023/05/21 13:52:48;;;;;;;13.73;8.70;;;;;;;;;;5054822;28;20104;-72
2023/05/21 13:55:14;;;;;;;12.63;8.93;;;;;;;;;;5054301;28;20088;-72
2023/05/21 13:57:40;;;;;;;11.82;8.23;;;;;;;;;;5054611;28;20044;-72
2023/05/21 14:00:08;;;;;;;12.10;7.82;;;;;;;;;;5054656;28;20025;-72
2023/05/21 14:02:33;;;;;;;9.95;7.05;;;;;;;;;;5053930;28;20060;-72
2023/05/21 14:04:58;;;;;;;13.48;9.25;;;;;;;;;;5054525;28;20021;-72
2023/05/21 14:07:24;;;;;;;11.93;8.23;;;;;;;;;;5054042;28;20021;-72
2023/05/21 14:09:49;;;;;;;10.20;7.50;;;;;;;;;;5054358;28;20025;-72
2023/05/21 14:12:15;;;;;;;10.45;7.95;;;;;;;;;;5054413;28;20365;-72
2023/05/21 14:14:40;;;;;;;10.32;7.53;;;;;;;;;;5054282;28;20021;-73
2023/05/21 14:17:06;;;;;;;10.93;7.05;;;;;;;;;;5054334;28;20020;-73
2023/05/21 14:19:31;;;;;;;13.00;9.27;;;;;;;;;;5054372;28;20021;-73
2023/05/21 14:21:58;;;;;;;14.45;8.68;;;;;;;;;;5054203;28;20481;-73
2023/05/21 14:24:24;;;;;;;10.40;7.22;;;;;;;;;;5054522;28;20021;-73
2023/05/21 14:26:49;;;;;;;17.40;9.02;;;;;;;;;;5054126;28;20083;-73
2023/05/21 14:29:14;;;;;;;12.98;7.95;;;;;;;;;;5053980;28;20028;-73
2023/05/21 14:31:40;;;;;;;11.05;7.82;;;;;;;;;;5053962;28;20473;-73